createdAt,value
2022-08-04T00:00:13.637Z,100375.00
2022-08-04T00:03:11.778Z,100383.00
2022-08-04T00:06:12.803Z,100377.00
2022-08-04T00:08:50.015Z,100380.00
2022-08-04T00:11:30.784Z,100384.00
2022-08-04T00:14:10.154Z,100376.00
2022-08-04T00:16:39.156Z,100377.00
2022-08-04T00:19:26.577Z,100375.00
2022-08-04T00:22:04.294Z,100375.00
2022-08-04T00:24:34.210Z,100373.00
2022-08-04T00:27:02.519Z,100376.00
2022-08-04T00:29:30.168Z,100378.00
2022-08-04T00:31:58.206Z,100379.00
2022-08-04T00:34:30.867Z,100373.00
2022-08-04T00:36:59.178Z,100371.00
2022-08-04T00:39:27.968Z,100369.00
2022-08-04T00:42:35.682Z,100368.00
2022-08-04T00:45:35.708Z,100373.00
2022-08-04T00:48:46.764Z,100374.00
2022-08-04T00:51:46.827Z,100373.00
2022-08-04T00:54:49.170Z,100375.00
2022-08-04T00:58:07.086Z,100373.00
2022-08-04T01:00:48.784Z,100368.00
2022-08-04T01:03:32.704Z,100370.00
2022-08-04T01:06:38.514Z,100368.00
2022-08-04T01:09:33.868Z,100364.00
2022-08-04T01:12:42.218Z,100363.00
2022-08-04T01:15:57.177Z,100369.00
2022-08-04T01:19:01.096Z,100363.00
2022-08-04T01:21:50.005Z,100368.00
2022-08-04T01:24:51.715Z,100363.00
2022-08-04T01:27:36.925Z,100360.00
2022-08-04T01:30:08.913Z,100361.00
2022-08-04T01:32:49.554Z,100359.00
2022-08-04T01:35:46.486Z,100357.00
2022-08-04T01:38:20.125Z,100351.00
2022-08-04T01:40:54.435Z,100356.00
2022-08-04T01:43:22.173Z,100351.00
2022-08-04T01:46:00.788Z,100349.00
2022-08-04T01:48:29.501Z,100352.00
2022-08-04T01:51:06.156Z,100354.00
2022-08-04T01:53:41.202Z,100351.00
2022-08-04T01:56:11.968Z,100348.00
2022-08-04T01:58:41.430Z,100348.00
2022-08-04T02:01:13.971Z,100344.00
2022-08-04T02:04:18.595Z,100342.00
2022-08-04T02:06:53.278Z,100344.00
2022-08-04T02:09:23.129Z,100347.00
2022-08-04T02:12:39.521Z,100342.00
2022-08-04T02:15:30.707Z,100340.00
2022-08-04T02:18:16.645Z,100347.00
2022-08-04T02:20:50.289Z,100345.00
2022-08-04T02:23:37.698Z,100341.00
2022-08-04T02:26:19.386Z,100337.00
2022-08-04T02:29:20.441Z,100336.00
2022-08-04T02:32:01.171Z,100323.00
2022-08-04T02:35:00.544Z,100332.00
2022-08-04T02:37:32.136Z,100321.00
2022-08-04T02:40:02.535Z,100332.00
2022-08-04T02:42:33.416Z,100325.00
2022-08-04T02:45:01.911Z,100317.00
2022-08-04T02:48:08.254Z,100322.00
2022-08-04T02:50:29.000Z,100330.00
2022-08-04T02:53:01.418Z,100313.00
2022-08-04T02:55:30.499Z,100310.00
2022-08-04T02:58:02.863Z,100314.00
2022-08-04T03:00:31.154Z,100316.00
2022-08-04T03:03:35.348Z,100316.00
2022-08-04T03:06:11.767Z,100316.00
2022-08-04T03:09:22.094Z,100312.00
2022-08-04T03:12:23.197Z,100309.00
2022-08-04T03:15:37.299Z,100315.00
2022-08-04T03:18:41.589Z,100312.00
2022-08-04T03:21:43.086Z,100315.00
2022-08-04T03:24:55.515Z,100320.00
2022-08-04T03:27:41.808Z,100320.00
2022-08-04T03:30:31.407Z,100316.00
2022-08-04T03:33:07.577Z,100323.00
2022-08-04T03:36:18.173Z,100307.00
2022-08-04T03:39:37.627Z,100305.00
2022-08-04T03:42:49.791Z,100307.00
2022-08-04T03:46:01.789Z,100307.00
2022-08-04T03:49:18.865Z,100301.00
2022-08-04T03:52:40.498Z,100307.00
2022-08-04T03:55:22.700Z,100297.00
2022-08-04T03:58:38.261Z,100307.00
2022-08-04T04:01:11.704Z,100306.00
2022-08-04T04:04:26.523Z,100307.00
2022-08-04T04:08:01.907Z,100306.00
2022-08-04T04:11:05.208Z,100308.00
2022-08-04T04:13:35.563Z,100303.00
2022-08-04T04:16:23.902Z,100308.00
2022-08-04T04:19:06.273Z,100304.00
2022-08-04T04:21:33.714Z,100305.00
2022-08-04T04:24:34.145Z,100305.00
2022-08-04T04:27:30.284Z,100305.00
2022-08-04T04:30:08.702Z,100307.00
2022-08-04T04:33:22.918Z,100306.00
2022-08-04T04:36:49.857Z,100298.00
2022-08-04T04:40:05.781Z,100304.00
2022-08-04T04:43:10.472Z,100310.00
2022-08-04T04:45:51.527Z,100312.00
2022-08-04T04:49:12.953Z,100315.00
2022-08-04T04:51:58.744Z,100309.00
2022-08-04T04:54:56.870Z,100311.00
2022-08-04T04:57:51.928Z,100307.00
2022-08-04T05:00:15.489Z,100306.00
2022-08-04T05:03:08.721Z,100311.00
2022-08-04T05:06:24.128Z,100307.00
2022-08-04T05:09:03.871Z,100312.00
2022-08-04T05:12:59.196Z,100307.00
2022-08-04T05:15:00.884Z,100306.00
2022-08-04T05:17:35.814Z,100310.00
2022-08-04T05:20:17.218Z,100314.00
2022-08-04T05:23:15.970Z,100309.00
2022-08-04T05:26:05.421Z,100311.00
2022-08-04T05:28:43.797Z,100317.00
2022-08-04T05:31:14.543Z,100314.00
2022-08-04T05:33:58.200Z,100314.00
2022-08-04T05:36:41.512Z,100312.00
2022-08-04T05:39:20.511Z,100315.00
2022-08-04T05:41:55.694Z,100307.00
2022-08-04T05:44:28.958Z,100309.00
2022-08-04T05:46:58.723Z,100312.00
2022-08-04T05:49:30.910Z,100309.00
2022-08-04T05:52:03.581Z,100313.00
2022-08-04T05:54:33.959Z,100307.00
2022-08-04T05:57:05.248Z,100302.00
2022-08-04T05:59:35.458Z,100303.00
2022-08-04T06:02:03.934Z,100307.00
2022-08-04T06:04:43.304Z,100306.00
2022-08-04T06:07:14.497Z,100304.00
2022-08-04T06:09:42.878Z,100313.00
2022-08-04T06:12:16.894Z,100302.00
2022-08-04T06:14:50.539Z,100303.00
2022-08-04T06:18:32.771Z,100312.00
2022-08-04T06:20:19.460Z,100305.00
2022-08-04T06:22:59.649Z,100306.00
2022-08-04T06:25:38.682Z,100309.00
2022-08-04T06:28:10.733Z,100303.00
2022-08-04T06:30:39.879Z,100303.00
2022-08-04T06:33:28.057Z,100301.00
2022-08-04T06:35:56.935Z,100297.00
2022-08-04T06:38:26.654Z,100298.00
2022-08-04T06:40:58.687Z,100294.00
2022-08-04T06:43:29.576Z,100293.00
2022-08-04T06:46:03.050Z,100296.00
2022-08-04T06:48:33.453Z,100296.00
2022-08-04T06:51:28.203Z,100291.00
2022-08-04T06:53:51.231Z,100296.00
2022-08-04T06:56:20.386Z,100293.00
2022-08-04T06:58:48.928Z,100289.00
2022-08-04T07:01:20.233Z,100291.00
2022-08-04T07:03:50.830Z,100290.00
2022-08-04T07:06:19.420Z,100282.00
2022-08-04T07:08:47.421Z,100278.00
2022-08-04T07:11:16.118Z,100281.00
2022-08-04T07:13:45.607Z,100281.00
2022-08-04T07:16:17.953Z,100280.00
2022-08-04T07:18:46.181Z,100274.00
2022-08-04T07:21:22.076Z,100278.00
2022-08-04T07:23:53.347Z,100278.00
2022-08-04T07:26:26.988Z,100274.00
2022-08-04T07:28:54.926Z,100270.00
2022-08-04T07:31:33.111Z,100270.00
2022-08-04T07:34:20.724Z,100268.00
2022-08-04T07:36:52.997Z,100271.00
2022-08-04T07:39:28.395Z,100267.00
2022-08-04T07:41:58.946Z,100272.00
2022-08-04T07:44:27.314Z,100266.00
2022-08-04T07:46:55.749Z,100267.00
2022-08-04T07:49:56.115Z,100266.00
2022-08-04T07:52:12.609Z,100270.00
2022-08-04T07:54:41.548Z,100273.00
2022-08-04T07:57:09.475Z,100266.00
2022-08-04T07:59:50.287Z,100272.00
2022-08-04T08:02:20.463Z,100266.00
2022-08-04T08:04:48.799Z,100263.00
2022-08-04T08:07:18.915Z,100259.00
2022-08-04T08:09:47.001Z,100259.00
2022-08-04T08:12:37.696Z,100259.00
2022-08-04T08:15:03.300Z,100255.00
2022-08-04T08:17:31.302Z,100252.00
2022-08-04T08:20:29.861Z,100242.00
2022-08-04T08:22:59.036Z,100237.00
2022-08-04T08:25:27.139Z,100245.00
2022-08-04T08:27:55.953Z,100233.00
2022-08-04T08:30:31.497Z,100238.00
2022-08-04T08:33:02.302Z,100241.00
2022-08-04T08:35:35.696Z,100243.00
2022-08-04T08:38:16.419Z,100238.00
2022-08-04T08:40:49.320Z,100238.00
2022-08-04T08:44:00.637Z,100241.00
2022-08-04T08:46:49.442Z,100239.00
2022-08-04T08:50:02.612Z,100225.00
2022-08-04T08:53:02.130Z,100233.00
2022-08-04T08:56:03.087Z,100239.00
2022-08-04T08:58:49.342Z,100235.00
2022-08-04T09:01:38.933Z,100229.00
2022-08-04T09:04:46.389Z,100228.00
2022-08-04T09:07:59.678Z,100234.00
2022-08-04T09:10:33.747Z,100233.00
2022-08-04T09:13:48.984Z,100231.00
2022-08-04T09:16:39.352Z,100232.00
2022-08-04T09:19:37.874Z,100225.00
2022-08-04T09:22:45.003Z,100227.00
2022-08-04T09:25:29.195Z,100227.00
2022-08-04T09:28:09.655Z,100230.00
2022-08-04T09:30:59.909Z,100226.00
2022-08-04T09:33:45.774Z,100222.00
2022-08-04T09:36:34.896Z,100225.00
2022-08-04T09:39:23.631Z,100227.00
2022-08-04T09:42:16.731Z,100224.00
2022-08-04T09:45:06.466Z,100226.00
2022-08-04T09:47:49.788Z,100226.00
2022-08-04T09:50:40.678Z,100229.00
2022-08-04T09:53:16.987Z,100226.00
2022-08-04T09:55:53.998Z,100222.00
2022-08-04T09:58:50.840Z,100216.00
2022-08-04T10:01:23.832Z,100216.00
2022-08-04T10:03:59.677Z,100210.00
2022-08-04T10:07:02.685Z,100218.00
2022-08-04T10:09:51.144Z,100208.00
2022-08-04T10:12:24.961Z,100196.00
2022-08-04T10:15:24.481Z,100193.00
2022-08-04T10:18:09.785Z,100207.00
2022-08-04T10:21:10.220Z,100207.00
2022-08-04T10:24:11.147Z,100213.00
2022-08-04T10:26:58.684Z,100210.00
2022-08-04T10:29:44.858Z,100208.00
2022-08-04T10:32:29.797Z,100202.00
2022-08-04T10:35:16.270Z,100206.00
2022-08-04T10:38:26.897Z,100205.00
2022-08-04T10:41:13.849Z,100203.00
2022-08-04T10:44:10.299Z,100195.00
2022-08-04T10:46:48.296Z,100195.00
2022-08-04T10:49:22.621Z,100198.00
2022-08-04T10:52:09.248Z,100193.00
2022-08-04T10:54:49.817Z,100189.00
2022-08-04T10:57:30.788Z,100180.00
2022-08-04T11:00:20.061Z,100186.00
2022-08-04T11:03:16.920Z,100178.00
2022-08-04T11:05:55.492Z,100176.00
2022-08-04T11:08:38.547Z,100187.00
2022-08-04T11:12:00.684Z,100189.00
2022-08-04T11:14:50.705Z,100183.00
2022-08-04T11:17:27.297Z,100186.00
2022-08-04T11:20:37.712Z,100180.00
2022-08-04T11:23:18.710Z,100186.00
2022-08-04T11:26:07.004Z,100173.00
2022-08-04T11:29:04.111Z,100173.00
2022-08-04T11:31:36.792Z,100175.00
2022-08-04T11:34:23.878Z,100170.00
2022-08-04T11:37:18.266Z,100168.00
2022-08-04T11:40:13.459Z,100178.00
2022-08-04T11:42:53.565Z,100179.00
2022-08-04T11:45:32.284Z,100174.00
2022-08-04T11:48:08.726Z,100169.00
2022-08-04T11:50:39.611Z,100173.00
2022-08-04T11:53:09.748Z,100164.00
2022-08-04T11:56:07.619Z,100166.00
2022-08-04T11:58:27.391Z,100170.00
2022-08-04T12:01:22.898Z,100175.00
2022-08-04T12:04:17.928Z,100179.00
2022-08-04T12:07:30.405Z,100175.00
2022-08-04T12:10:12.717Z,100184.00
2022-08-04T12:13:11.846Z,100175.00
2022-08-04T12:16:20.018Z,100185.00
2022-08-04T12:18:54.522Z,100182.00
2022-08-04T12:21:50.563Z,100181.00
2022-08-04T12:24:30.395Z,100178.00
2022-08-04T12:27:05.482Z,100172.00
2022-08-04T12:29:36.413Z,100185.00
2022-08-04T12:32:39.244Z,100172.00
2022-08-04T12:35:27.574Z,100174.00
2022-08-04T12:38:07.613Z,100169.00
2022-08-04T12:40:55.980Z,100170.00
2022-08-04T12:43:53.637Z,100171.00
2022-08-04T12:46:25.702Z,100163.00
2022-08-04T12:49:01.162Z,100174.00
2022-08-04T12:51:31.018Z,100164.00
2022-08-04T12:54:28.970Z,100171.00
2022-08-04T12:57:02.022Z,100163.00
2022-08-04T12:59:29.815Z,100163.00
2022-08-04T13:02:11.028Z,100157.00
2022-08-04T13:04:51.535Z,100147.00
2022-08-04T13:07:25.840Z,100151.00
2022-08-04T13:09:53.675Z,100151.00
2022-08-04T13:12:32.087Z,100149.00
2022-08-04T13:15:17.548Z,100138.00
2022-08-04T13:18:06.212Z,100136.00
2022-08-04T13:20:47.836Z,100135.00
2022-08-04T13:23:21.828Z,100143.00
2022-08-04T13:26:44.935Z,100137.00
2022-08-04T13:28:44.636Z,100130.00
2022-08-04T13:31:17.242Z,100133.00
2022-08-04T13:33:49.057Z,100143.00
2022-08-04T13:36:19.188Z,100144.00
2022-08-04T13:39:02.162Z,100144.00
2022-08-04T13:41:31.462Z,100139.00
2022-08-04T13:44:19.200Z,100137.00
2022-08-04T13:47:14.773Z,100134.00
2022-08-04T13:50:08.498Z,100132.00
2022-08-04T13:52:30.162Z,100127.00
2022-08-04T13:54:58.798Z,100121.00
2022-08-04T13:57:33.557Z,100140.00
2022-08-04T14:00:09.451Z,100121.00
2022-08-04T14:02:47.954Z,100114.00
2022-08-04T14:05:27.026Z,100108.00
2022-08-04T14:08:15.018Z,100103.00
2022-08-04T14:10:42.961Z,100103.00
2022-08-04T14:13:10.970Z,100105.00
2022-08-04T14:16:01.873Z,100099.00
2022-08-04T14:18:34.809Z,100108.00
2022-08-04T14:21:05.250Z,100102.00
2022-08-04T14:23:57.671Z,100089.00
2022-08-04T14:26:33.101Z,100085.00
2022-08-04T14:29:37.858Z,100089.00
2022-08-04T14:32:13.907Z,100086.00
2022-08-04T14:34:50.637Z,100075.00
2022-08-04T14:37:23.199Z,100069.00
2022-08-04T14:40:17.888Z,100090.00
2022-08-04T14:42:54.552Z,100090.00
2022-08-04T14:45:39.265Z,100076.00
2022-08-04T14:48:22.448Z,100081.00
2022-08-04T14:50:51.275Z,100067.00
2022-08-04T14:53:31.552Z,100073.00
2022-08-04T14:56:01.371Z,100065.00
2022-08-04T14:58:38.978Z,100073.00
2022-08-04T15:01:12.224Z,100067.00
2022-08-04T15:03:49.772Z,100062.00
2022-08-04T15:06:29.764Z,100054.00
2022-08-04T15:09:07.422Z,100059.00
2022-08-04T15:11:41.478Z,100054.00
2022-08-04T15:14:36.212Z,100047.00
2022-08-04T15:16:58.939Z,100051.00
2022-08-04T15:19:27.360Z,100055.00
2022-08-04T15:21:56.040Z,100052.00
2022-08-04T15:24:23.749Z,100047.00
2022-08-04T15:26:57.919Z,100048.00
2022-08-04T15:30:00.678Z,100045.00
2022-08-04T15:32:32.957Z,100041.00
2022-08-04T15:35:13.235Z,100040.00
2022-08-04T15:38:02.503Z,100036.00
2022-08-04T15:40:40.581Z,100039.00
2022-08-04T15:44:06.985Z,100031.00
2022-08-04T15:46:43.020Z,100037.00
2022-08-04T15:49:24.773Z,100043.00
2022-08-04T15:52:12.361Z,100037.00
2022-08-04T15:54:42.550Z,100029.00
2022-08-04T15:58:03.642Z,100029.00
2022-08-04T16:01:03.205Z,100037.00
2022-08-04T16:03:59.214Z,100035.00
2022-08-04T16:06:29.126Z,100030.00
2022-08-04T16:09:04.377Z,100039.00
2022-08-04T16:11:40.193Z,100035.00
2022-08-04T16:14:11.718Z,100038.00
2022-08-04T16:16:46.562Z,100036.00
2022-08-04T16:19:53.530Z,100037.00
2022-08-04T16:22:38.776Z,100032.00
2022-08-04T16:25:11.020Z,100043.00
2022-08-04T16:27:44.876Z,100044.00
2022-08-04T16:30:15.390Z,100045.00
2022-08-04T16:32:46.282Z,100049.00
2022-08-04T16:35:29.134Z,100049.00
2022-08-04T16:38:16.696Z,100044.00
2022-08-04T16:40:44.922Z,100054.00
2022-08-04T16:43:19.489Z,100057.00
2022-08-04T16:45:59.553Z,100057.00
2022-08-04T16:48:30.274Z,100053.00
2022-08-04T16:51:14.985Z,100055.00
2022-08-04T16:54:02.676Z,100057.00
2022-08-04T16:56:34.754Z,100065.00
2022-08-04T16:59:11.604Z,100054.00
2022-08-04T17:01:50.586Z,100057.00
2022-08-04T17:04:33.160Z,100069.00
2022-08-04T17:07:04.658Z,100063.00
2022-08-04T17:09:33.610Z,100064.00
2022-08-04T17:12:02.411Z,100060.00
2022-08-04T17:14:32.072Z,100063.00
2022-08-04T17:17:02.674Z,100062.00
2022-08-04T17:19:30.268Z,100062.00
2022-08-04T17:22:06.818Z,100062.00
2022-08-04T17:24:38.468Z,100057.00
2022-08-04T17:28:20.142Z,100068.00
2022-08-04T17:29:55.608Z,100080.00
2022-08-04T17:32:24.425Z,100091.00
2022-08-04T17:37:52.184Z,100094.00
2022-08-04T17:40:25.401Z,100098.00
2022-08-04T17:44:03.180Z,100105.00
2022-08-04T17:46:29.437Z,100104.00
2022-08-04T17:49:18.757Z,100107.00
2022-08-04T17:52:05.675Z,100114.00
2022-08-04T17:54:39.378Z,100116.00
2022-08-04T17:57:22.099Z,100123.00
2022-08-04T18:00:00.169Z,100122.00
2022-08-04T18:06:01.389Z,100131.00
2022-08-04T18:08:40.586Z,100122.00
2022-08-04T18:11:04.358Z,100130.00
2022-08-04T18:13:42.587Z,100135.00
2022-08-04T18:16:22.675Z,100130.00
2022-08-04T18:19:14.843Z,100134.00
2022-08-04T18:22:00.045Z,100143.00
2022-08-04T18:27:29.825Z,100145.00
2022-08-04T18:30:33.716Z,100141.00
2022-08-04T18:33:24.307Z,100141.00
2022-08-04T18:36:34.657Z,100150.00
2022-08-04T18:38:24.384Z,100147.00
2022-08-04T18:40:55.812Z,100147.00
2022-08-04T18:43:28.716Z,100149.00
2022-08-04T18:45:59.518Z,100161.00
2022-08-04T18:48:35.919Z,100155.00
2022-08-04T18:51:10.164Z,100162.00
2022-08-04T18:53:44.585Z,100166.00
2022-08-04T18:56:20.111Z,100175.00
2022-08-04T18:58:59.889Z,100175.00
2022-08-04T19:01:30.008Z,100183.00
2022-08-04T19:04:33.336Z,100190.00
2022-08-04T19:07:23.261Z,100198.00
2022-08-04T19:09:53.894Z,100207.00
2022-08-04T19:12:26.277Z,100207.00
2022-08-04T19:14:58.184Z,100211.00
2022-08-04T19:17:53.430Z,100212.00
2022-08-04T19:20:25.366Z,100217.00
2022-08-04T19:24:10.710Z,100211.00
2022-08-04T19:26:01.936Z,100214.00
2022-08-04T19:28:35.181Z,100216.00
2022-08-04T19:31:07.579Z,100217.00
2022-08-04T19:33:59.073Z,100224.00
2022-08-04T19:36:28.728Z,100225.00
2022-08-04T19:38:58.814Z,100233.00
2022-08-04T19:41:28.131Z,100234.00
2022-08-04T19:43:56.112Z,100222.00
2022-08-04T19:46:25.741Z,100233.00
2022-08-04T19:48:59.079Z,100227.00
2022-08-04T19:51:38.943Z,100218.00
2022-08-04T19:54:17.124Z,100223.00
2022-08-04T19:56:51.741Z,100223.00
2022-08-04T19:59:19.221Z,100219.00
2022-08-04T20:01:46.983Z,100224.00
2022-08-04T20:04:17.914Z,100230.00
2022-08-04T20:06:45.992Z,100218.00
2022-08-04T20:09:24.890Z,100228.00
2022-08-04T20:11:58.885Z,100229.00
2022-08-04T20:14:31.323Z,100232.00
2022-08-04T20:17:10.393Z,100233.00
2022-08-04T20:19:42.128Z,100231.00
2022-08-04T20:22:51.689Z,100234.00
2022-08-04T20:25:36.127Z,100241.00
2022-08-04T20:28:00.590Z,100242.00
2022-08-04T20:30:30.756Z,100244.00
2022-08-04T20:33:01.522Z,100230.00
2022-08-04T20:36:00.651Z,100239.00
2022-08-04T20:38:33.644Z,100246.00
2022-08-04T20:41:03.223Z,100246.00
2022-08-04T20:43:31.271Z,100259.00
2022-08-04T20:45:59.881Z,100265.00
2022-08-04T20:48:33.541Z,100260.00
2022-08-04T20:51:01.977Z,100266.00
2022-08-04T20:53:46.865Z,100263.00
2022-08-04T20:56:19.188Z,100261.00
2022-08-04T20:59:00.393Z,100269.00
2022-08-04T21:01:30.167Z,100268.00
2022-08-04T21:04:28.011Z,100272.00
2022-08-04T21:07:01.558Z,100274.00
2022-08-04T21:09:38.162Z,100281.00
2022-08-04T21:12:28.485Z,100281.00
2022-08-04T21:15:13.289Z,100277.00
2022-08-04T21:17:57.455Z,100287.00
2022-08-04T21:20:31.452Z,100289.00
2022-08-04T21:26:02.858Z,100279.00
2022-08-04T21:28:31.447Z,100278.00
2022-08-04T21:31:02.338Z,100284.00
2022-08-04T21:33:50.296Z,100292.00
2022-08-04T21:36:19.930Z,100287.00
2022-08-04T21:38:51.668Z,100286.00
2022-08-04T21:41:25.090Z,100288.00
2022-08-04T21:43:55.902Z,100289.00
2022-08-04T21:46:23.955Z,100309.00
2022-08-04T21:48:51.788Z,100303.00
2022-08-04T21:51:58.582Z,100301.00
2022-08-04T21:54:14.996Z,100296.00
2022-08-04T21:56:51.004Z,100306.00
2022-08-04T21:59:23.825Z,100299.00
2022-08-04T22:04:49.764Z,100294.00
2022-08-04T22:07:17.554Z,100303.00
2022-08-04T22:10:00.287Z,100301.00
2022-08-04T22:12:30.947Z,100306.00
2022-08-04T22:15:01.735Z,100310.00
2022-08-04T22:17:49.420Z,100307.00
2022-08-04T22:20:27.251Z,100301.00
2022-08-04T22:23:03.418Z,100308.00
2022-08-04T22:25:44.791Z,100298.00
2022-08-04T22:28:21.559Z,100294.00
2022-08-04T22:30:58.340Z,100296.00
2022-08-04T22:33:54.630Z,100290.00
2022-08-04T22:36:16.019Z,100280.00
2022-08-04T22:38:50.087Z,100292.00
2022-08-04T22:41:33.768Z,100294.00
2022-08-04T22:44:02.295Z,100294.00
2022-08-04T22:46:30.949Z,100290.00
2022-08-04T22:48:58.838Z,100279.00
2022-08-04T22:51:26.944Z,100279.00
2022-08-04T22:53:55.198Z,100284.00
2022-08-04T22:56:38.678Z,100271.00
2022-08-04T22:59:10.988Z,100263.00
2022-08-04T23:01:58.947Z,100280.00
2022-08-04T23:04:29.771Z,100275.00
2022-08-04T23:06:57.831Z,100269.00
2022-08-04T23:09:48.916Z,100261.00
2022-08-04T23:12:24.245Z,100257.00
2022-08-04T23:14:58.018Z,100247.00
2022-08-04T23:17:27.839Z,100261.00
2022-08-04T23:20:00.140Z,100275.00
2022-08-04T23:22:37.159Z,100284.00
2022-08-04T23:25:16.156Z,100285.00
2022-08-04T23:27:51.274Z,100292.00
2022-08-04T23:30:29.753Z,100287.00
2022-08-04T23:32:58.677Z,100270.00
2022-08-04T23:35:26.416Z,100256.00
2022-08-04T23:37:56.795Z,100259.00
2022-08-04T23:40:30.056Z,100261.00
2022-08-04T23:43:17.500Z,100249.00
2022-08-04T23:46:06.558Z,100246.00
2022-08-04T23:48:38.914Z,100234.00
2022-08-04T23:51:14.058Z,100222.00
2022-08-04T23:54:02.037Z,100216.00
2022-08-04T23:56:34.397Z,100201.00
2022-08-04T23:59:03.683Z,100172.00
